Time;durP1;ratioP1;P1;durP2;ratioP2;P2;SDS_P1;SDS_P2;PMS_P1;PMS_P2;Temp;Humidity;BMP_temperature;BMP_pressure;BME280_temperature;BME280_humidity;BME280_pressure;Samples;Min_cycle;Max_cycle;Signal;HPM_P1;HPM_P2
2023/09/01 00:00:03;;;;;;;4.20;1.63;;;;;;;23.67;56.84;99699.97;4991466;28;20582;-86
2023/09/01 00:02:28;;;;;;;2.92;1.73;;;;;;;23.95;56.40;99716.94;4991160;28;20037;-85
2023/09/01 00:04:55;;;;;;;1.88;1.27;;;;;;;23.94;56.60;99713.38;4991642;28;20412;-85
2023/09/01 00:07:20;;;;;;;2.75;2.17;;;;;;;23.84;56.24;99685.38;4991124;28;20402;-86
2023/09/01 00:09:46;;;;;;;2.95;1.58;;;;;;;23.75;55.76;99678.75;4991383;28;20038;-86
2023/09/01 00:12:11;;;;;;;2.63;1.52;;;;;;;23.87;56.00;99687.84;4991191;28;20095;-85
2023/09/01 00:14:37;;;;;;;1.48;1.20;;;;;;;23.85;56.30;99703.25;4973738;28;20030;-86
2023/09/01 00:17:03;;;;;;;3.03;1.70;;;;;;;23.94;56.70;99702.63;4988506;28;20030;-86
2023/09/01 00:19:29;;;;;;;5.40;2.00;;;;;;;23.96;56.66;99710.59;4998182;28;20451;-86
2023/09/01 00:21:54;;;;;;;1.48;0.90;;;;;;;23.72;56.98;99672.72;4997533;28;20069;-85
2023/09/01 00:24:20;;;;;;;3.60;2.10;;;;;;;23.82;57.12;99713.34;4999112;28;20022;-86
2023/09/01 00:26:45;;;;;;;2.50;1.33;;;;;;;23.76;57.54;99703.88;5000393;28;20053;-87
2023/09/01 00:29:10;;;;;;;2.10;1.40;;;;;;;23.76;57.40;99706.56;4997972;28;20038;-86
2023/09/01 00:31:36;;;;;;;7.95;2.97;;;;;;;23.90;57.61;99703.78;4992499;28;20481;-86
2023/09/01 00:34:02;;;;;;;2.28;1.42;;;;;;;23.72;57.75;99692.44;4971731;28;20034;-86
2023/09/01 00:36:27;;;;;;;1.35;0.93;;;;;;;23.71;57.90;99690.72;4978662;28;20043;-85
2023/09/01 00:38:53;;;;;;;4.28;1.17;;;;;;;23.69;58.52;99721.41;4981397;28;20030;-85
2023/09/01 00:41:19;;;;;;;1.77;1.15;;;;;;;23.60;58.97;99730.97;4976447;28;20505;-86
2023/09/01 00:43:44;;;;;;;4.30;1.10;;;;;;;23.10;59.02;99662.66;4955124;28;20034;-85
2023/09/01 00:46:10;;;;;;;4.47;1.83;;;;;;;23.54;58.94;99715.25;4972109;28;20485;-87
2023/09/01 00:48:37;;;;;;;7.75;2.30;;;;;;;23.61;58.73;99730.03;4974370;28;20078;-86
2023/09/01 00:51:03;;;;;;;5.35;1.20;;;;;;;23.70;59.15;99729.38;4971647;28;20034;-86
2023/09/01 00:53:29;;;;;;;1.52;1.20;;;;;;;23.56;59.05;99710.63;4972042;28;20565;-87
2023/09/01 00:55:57;;;;;;;2.53;1.38;;;;;;;23.43;59.37;99702.53;4971987;28;20031;-86
2023/09/01 00:58:23;;;;;;;3.60;2.38;;;;;;;23.58;59.32;99714.94;5003667;28;20412;-86
2023/09/01 01:00:48;;;;;;;2.38;2.00;;;;;;;23.33;59.17;99688.00;4988191;28;20041;-86
2023/09/01 01:03:14;;;;;;;1.88;1.27;;;;;;;23.32;59.01;99697.88;4991147;28;20414;-85
2023/09/01 01:05:52;;;;;;;2.15;1.35;;;;;;;23.50;59.30;99736.13;4990476;28;20042;-86
2023/09/01 01:08:56;;;;;;;4.65;1.75;;;;;;;23.58;59.27;99733.78;4989498;28;20335;-87
2023/09/01 01:11:41;;;;;;;2.80;1.33;;;;;;;23.51;59.44;99737.88;4949507;29;20524;-85
2023/09/01 01:14:14;;;;;;;3.55;2.03;;;;;;;23.46;59.28;99734.59;4949849;29;20043;-86
2023/09/01 01:16:39;;;;;;;1.88;1.00;;;;;;;23.32;60.16;99732.84;4950214;29;20039;-86
2023/09/01 01:19:13;;;;;;;2.35;1.50;;;;;;;;;;4949202;29;20031;-85
2023/09/01 01:21:43;;;;;;;1.13;0.90;;;;;;;23.44;60.37;99743.78;4948908;29;20031;-86
2023/09/01 01:24:08;;;;;;;1.90;1.60;;;;;;;23.19;61.53;99742.75;4949592;29;20039;-86
2023/09/01 01:26:36;;;;;;;3.88;1.13;;;;;;;23.37;61.89;99779.19;4950094;29;20031;-86
2023/09/01 01:29:01;;;;;;;2.95;1.50;;;;;;;23.24;62.79;99770.19;4949612;29;20047;-87
2023/09/01 01:31:27;;;;;;;7.03;2.72;;;;;;;23.12;63.11;99750.34;4949359;29;20138;-86
2023/09/01 01:33:56;;;;;;;5.82;2.63;;;;;;;23.14;64.21;99778.03;4949456;29;20151;-86
2023/09/01 01:36:34;;;;;;;2.58;1.70;;;;;;;23.16;64.34;99775.22;4950580;28;20063;-87
2023/09/01 01:39:09;;;;;;;1.77;1.23;;;;;;;22.98;64.61;99747.66;4937481;29;20513;-85
2023/09/01 01:41:38;;;;;;;2.30;1.23;;;;;;;22.81;64.96;99709.28;4936887;29;20476;-85
2023/09/01 01:44:06;;;;;;;3.22;1.80;;;;;;;22.86;65.63;99726.00;4953497;29;20035;-86
2023/09/01 01:46:33;;;;;;;2.53;2.05;;;;;;;22.88;65.84;99728.59;4953916;29;20299;-85
2023/09/01 01:48:59;;;;;;;3.35;2.08;;;;;;;22.86;66.02;99722.44;4982142;28;20049;-86
2023/09/01 01:51:25;;;;;;;2.95;1.80;;;;;;;23.03;65.93;99748.22;4993908;28;20030;-86
2023/09/01 01:53:50;;;;;;;2.75;1.80;;;;;;;22.85;66.07;99718.88;4975930;28;20528;-87
2023/09/01 01:56:16;;;;;;;2.38;1.48;;;;;;;22.78;66.05;99720.25;4994259;28;20030;-86
2023/09/01 01:58:41;;;;;;;3.45;1.83;;;;;;;22.61;66.42;99707.91;4976614;28;20386;-86
2023/09/01 02:01:07;;;;;;;3.90;2.28;;;;;;;22.69;66.83;99723.53;4994103;28;20034;-85
2023/09/01 02:03:34;;;;;;;2.40;1.95;;;;;;;22.66;67.57;99756.00;4984325;28;20043;-86
2023/09/01 02:05:59;;;;;;;1.92;1.60;;;;;;;22.39;67.66;99726.38;4974493;28;20122;-86
2023/09/01 02:08:25;;;;;;;1.25;0.73;;;;;;;22.30;67.45;99709.88;4974249;28;20030;-85
2023/09/01 02:10:51;;;;;;;2.67;1.58;;;;;;;22.62;67.12;99738.34;4983887;28;20038;-90
2023/09/01 02:13:17;;;;;;;3.95;1.65;;;;;;;22.62;66.94;99747.28;4992711;28;20089;-86
2023/09/01 02:15:54;;;;;;;2.60;1.88;;;;;;;22.51;66.73;99713.03;4992785;28;20026;-86
2023/09/01 02:18:21;;;;;;;2.45;1.10;;;;;;;22.53;66.63;99732.59;4992391;28;20742;-88
2023/09/01 02:20:47;;;;;;;2.38;1.88;;;;;;;22.44;66.88;99735.00;4993603;28;20039;-86
2023/09/01 02:23:15;;;;;;;2.10;1.75;;;;;;;22.31;67.39;99726.88;4992477;28;20078;-87
2023/09/01 02:25:40;;;;;;;3.10;1.73;;;;;;;22.25;67.49;99725.41;4961664;28;20049;-86
2023/09/01 02:28:06;;;;;;;1.35;1.00;;;;;;;22.11;67.76;99730.78;4973982;28;20039;-86
2023/09/01 02:30:32;;;;;;;6.47;2.63;;;;;;;22.08;68.08;99745.25;4973658;28;20058;-88
2023/09/01 02:32:57;;;;;;;2.15;1.35;;;;;;;21.89;68.41;99745.53;4979079;28;20467;-86
2023/09/01 02:35:23;;;;;;;2.97;1.42;;;;;;;21.80;68.45;99711.19;4986962;28;20035;-87
2023/09/01 02:37:51;;;;;;;4.38;1.45;;;;;;;21.65;68.67;99715.66;4973187;28;20565;-87
2023/09/01 02:40:17;;;;;;;4.00;3.25;;;;;;;21.76;68.17;99712.34;4973427;28;20117;-86
2023/09/01 02:42:42;;;;;;;3.20;1.85;;;;;;;21.82;68.00;99723.53;4973447;28;20572;-86
2023/09/01 02:45:12;;;;;;;1.40;0.98;;;;;;;21.91;67.82;99732.88;4973879;28;20093;-87
2023/09/01 02:47:39;;;;;;;3.85;1.95;;;;;;;21.82;67.76;99731.59;4991993;28;20031;-92
2023/09/01 02:50:06;;;;;;;3.22;2.03;;;;;;;21.87;67.83;99747.44;4992850;28;20128;-85
2023/09/01 02:52:32;;;;;;;1.67;1.30;;;;;;;21.58;68.34;99720.56;4992462;28;20089;-85
2023/09/01 02:54:57;;;;;;;1.55;0.95;;;;;;;21.58;67.75;99695.50;4993220;28;20030;-90
2023/09/01 02:57:23;;;;;;;10.57;2.20;;;;;;;21.53;67.66;99686.88;4990294;28;20064;-90
2023/09/01 02:59:50;;;;;;;3.40;1.83;;;;;;;21.58;67.78;99714.31;4991618;28;20066;-89
2023/09/01 03:02:15;;;;;;;1.83;1.45;;;;;;;21.66;67.78;99721.88;4992443;28;20034;-89
2023/09/01 03:04:41;;;;;;;3.97;2.13;;;;;;;21.49;67.94;99704.09;4974790;28;20927;-88
2023/09/01 03:07:07;;;;;;;3.70;2.70;;;;;;;21.51;67.76;99727.25;4987856;28;20031;-90
2023/09/01 03:09:32;;;;;;;2.53;1.85;;;;;;;21.41;67.64;99707.22;4972546;28;20485;-90
2023/09/01 03:11:58;;;;;;;3.38;2.40;;;;;;;21.53;67.87;99736.03;4972975;28;20031;-90
2023/09/01 03:14:24;;;;;;;3.30;2.30;;;;;;;21.40;67.80;99708.22;4973363;28;20039;-90
2023/09/01 03:16:50;;;;;;;1.73;1.17;;;;;;;21.38;67.80;99726.19;4955429;28;20030;-91
2023/09/01 03:19:16;;;;;;;4.07;2.17;;;;;;;21.24;67.36;99700.19;4972362;28;20477;-91
2023/09/01 03:21:42;;;;;;;1.35;0.85;;;;;;;21.07;67.33;99702.06;4974305;28;20497;-91
2023/09/01 03:24:07;;;;;;;5.47;2.85;;;;;;;20.98;67.41;99697.25;4974367;28;20085;-91
2023/09/01 03:26:33;;;;;;;1.65;1.02;;;;;;;21.29;67.66;99747.25;4991326;28;20034;-91
2023/09/01 03:28:58;;;;;;;2.50;1.30;;;;;;;21.42;67.11;99757.25;4970019;28;20088;-95
2023/09/01 03:31:24;;;;;;;1.00;0.80;;;;;;;21.36;66.75;99728.97;4975310;28;20034;-95
2023/09/01 03:33:49;;;;;;;2.42;1.50;;;;;;;21.02;66.79;99704.16;4975180;28;20038;-95
2023/09/01 03:36:15;;;;;;;1.63;1.00;;;;;;;21.23;66.81;99730.66;4975284;28;20076;-96
2023/09/01 03:38:40;;;;;;;7.55;1.92;;;;;;;21.01;66.79;99686.34;4974845;28;20061;-95
2023/09/01 03:41:07;;;;;;;2.00;1.38;;;;;;;21.24;66.79;99737.75;4974893;28;20124;-94
2023/09/01 03:43:33;;;;;;;5.15;2.28;;;;;;;21.36;66.75;99750.44;4964798;28;20426;-94
2023/09/01 03:45:59;;;;;;;2.63;1.30;;;;;;;21.25;66.70;99752.88;4972739;28;20454;-94
2023/09/01 03:48:25;;;;;;;5.13;1.70;;;;;;;20.90;67.17;99705.72;4965490;28;20117;-93
2023/09/01 03:51:15;;;;;;;2.58;1.55;;;;;;;20.95;67.72;99734.94;4990992;28;20037;-94
2023/09/01 03:53:41;;;;;;;2.80;1.98;;;;;;;20.78;67.77;99724.34;4971220;28;20038;-93
2023/09/01 03:56:15;;;;;;;9.25;1.65;;;;;;;20.74;67.52;99705.75;4972004;28;20046;-92
2023/09/01 03:58:41;;;;;;;2.90;1.55;;;;;;;20.97;67.72;99750.94;4974642;28;20116;-89
2023/09/01 04:01:11;;;;;;;2.47;1.65;;;;;;;21.02;67.56;99751.53;4972081;28;20058;-92
2023/09/01 04:03:47;;;;;;;7.13;2.05;;;;;;;20.84;67.44;99735.56;4965632;28;20426;-90
2023/09/01 04:06:13;;;;;;;1.30;1.10;;;;;;;20.95;67.39;99745.69;4971685;28;20049;-90
2023/09/01 04:08:39;;;;;;;1.55;1.08;;;;;;;20.71;67.82;99718.44;4973626;28;20034;-91
2023/09/01 04:11:05;;;;;;;3.47;1.40;;;;;;;20.68;67.87;99721.28;4965448;28;20413;-91
2023/09/01 04:13:34;;;;;;;1.52;1.35;;;;;;;20.68;67.67;99724.84;4960937;28;20551;-91
2023/09/01 04:16:00;;;;;;;1.75;1.38;;;;;;;20.65;68.59;99742.91;4992404;28;20034;-96
2023/09/01 04:18:26;;;;;;;1.95;1.30;;;;;;;20.75;67.95;99752.16;4959031;28;20126;-94
2023/09/01 04:20:53;;;;;;;1.77;0.93;;;;;;;20.81;67.82;99748.28;4957854;28;20042;-93
2023/09/01 04:23:19;;;;;;;2.72;1.77;;;;;;;20.60;67.84;99727.06;4975867;28;20132;-94
2023/09/01 04:25:46;;;;;;;5.72;1.70;;;;;;;20.85;68.00;99766.78;4981261;28;20030;-94
2023/09/01 04:28:12;;;;;;;2.50;2.17;;;;;;;21.07;67.29;99766.41;4966760;28;20045;-91
2023/09/01 04:30:38;;;;;;;1.38;1.02;;;;;;;20.71;66.44;99724.69;4991314;28;20030;-92
2023/09/01 04:33:06;;;;;;;8.10;1.58;;;;;;;21.18;66.06;99783.69;4990737;28;20042;-92
2023/09/01 04:35:33;;;;;;;2.97;1.48;;;;;;;20.64;66.29;99722.41;4989768;28;20518;-88
2023/09/01 04:37:59;;;;;;;2.97;1.50;;;;;;;20.72;65.81;99730.91;4972929;28;20088;-91
2023/09/01 04:40:25;;;;;;;7.22;1.65;;;;;;;21.22;65.48;99779.91;4976656;28;20031;-94
2023/09/01 04:42:51;;;;;;;2.13;1.48;;;;;;;21.11;65.40;99753.69;4954119;28;20162;-87
2023/09/01 04:45:17;;;;;;;4.15;2.10;;;;;;;21.37;65.04;99762.06;4985985;28;20193;-89
2023/09/01 04:47:43;;;;;;;5.30;1.85;;;;;;;21.51;65.05;99786.28;4990115;28;20034;-89
2023/09/01 04:50:09;;;;;;;1.25;1.15;;;;;;;21.49;64.35;99760.44;4970276;28;20132;-90
2023/09/01 04:52:35;;;;;;;7.32;2.20;;;;;;;21.64;64.15;99773.88;4989532;28;20034;-89
2023/09/01 04:55:01;;;;;;;2.53;1.50;;;;;;;21.63;63.78;99747.13;4990032;28;20080;-91
2023/09/01 04:57:27;;;;;;;5.93;1.83;;;;;;;21.81;62.94;99747.81;5004068;28;20034;-86
2023/09/01 04:59:53;;;;;;;1.80;1.30;;;;;;;22.07;62.74;99769.53;4987917;28;20071;-85
2023/09/01 05:02:18;;;;;;;3.50;1.95;;;;;;;21.69;60.81;99722.59;4990233;28;20452;-86
2023/09/01 05:04:44;;;;;;;2.13;1.42;;;;;;;22.15;61.56;99769.91;4981714;28;20383;-86
2023/09/01 05:07:10;;;;;;;2.78;1.33;;;;;;;22.03;59.71;99741.13;4977793;28;20405;-86
2023/09/01 05:09:35;;;;;;;0.75;0.70;;;;;;;22.02;59.26;99736.72;4981479;28;20033;-88
2023/09/01 05:12:01;;;;;;;2.90;0.90;;;;;;;22.26;59.57;99759.38;4989769;28;20489;-86
2023/09/01 05:14:26;;;;;;;1.20;1.10;;;;;;;22.40;58.76;99782.72;4993528;28;20440;-86
2023/09/01 05:16:51;;;;;;;3.83;1.40;;;;;;;22.48;58.93;99776.88;4990665;28;20041;-86
2023/09/01 05:19:17;;;;;;;2.58;1.67;;;;;;;22.60;58.21;99767.13;4993267;28;20049;-86
2023/09/01 05:21:42;;;;;;;2.47;0.60;;;;;;;22.23;58.27;99700.47;4991114;28;20104;-86
2023/09/01 05:24:08;;;;;;;4.22;1.50;;;;;;;22.94;58.24;99764.97;4981030;28;20347;-86
2023/09/01 05:26:34;;;;;;;1.50;0.57;;;;;;;22.81;57.07;99738.00;4991926;28;20034;-87
2023/09/01 05:29:00;;;;;;;2.58;0.82;;;;;;;23.17;57.46;99760.78;4992224;28;20434;-87
2023/09/01 05:31:25;;;;;;;3.90;1.40;;;;;;;23.53;56.55;99773.63;4990447;28;20367;-86
2023/09/01 05:33:51;;;;;;;1.50;1.33;;;;;;;;;;4990778;28;20034;-86
2023/09/01 05:36:16;;;;;;;1.65;0.93;;;;;;;23.50;55.35;99759.50;4993256;28;20559;-87
2023/09/01 05:38:42;;;;;;;2.53;1.42;;;;;;;23.77;54.59;99787.25;4990731;28;20023;-86
2023/09/01 05:41:10;;;;;;;2.45;1.77;;;;;;;23.85;54.86;99786.75;4993238;28;20034;-89
2023/09/01 05:43:36;;;;;;;1.85;1.13;;;;;;;23.87;53.86;99765.97;4990786;28;20049;-86
2023/09/01 05:46:02;;;;;;;1.42;1.33;;;;;;;23.98;53.40;99759.81;4990870;28;20433;-86
2023/09/01 05:48:27;;;;;;;4.88;1.85;;;;;;;24.24;51.40;99774.16;4969194;28;20424;-86
2023/09/01 05:50:53;;;;;;;2.42;1.60;;;;;;;24.35;51.75;99777.94;4991118;28;20046;-86
2023/09/01 05:53:18;;;;;;;7.15;2.40;;;;;;;24.23;50.92;99752.69;4992261;28;20511;-88
2023/09/01 05:55:43;;;;;;;4.38;2.35;;;;;;;24.22;50.15;99732.09;4983026;28;20402;-91
2023/09/01 05:58:09;;;;;;;2.22;1.73;;;;;;;24.81;49.86;99783.59;4986528;28;20049;-90
2023/09/01 06:00:34;;;;;;;2.47;1.48;;;;;;;24.86;50.03;99817.47;4990187;28;20034;-89
2023/09/01 06:03:00;;;;;;;7.65;2.10;;;;;;;24.81;49.38;99783.59;4993305;28;20035;-86
2023/09/01 06:05:25;;;;;;;2.90;1.52;;;;;;;24.95;48.67;99801.47;4990724;28;20027;-89
2023/09/01 06:07:51;;;;;;;2.50;1.65;;;;;;;25.35;48.92;99789.59;4987784;28;20511;-89
2023/09/01 06:10:16;;;;;;;4.15;2.13;;;;;;;25.32;47.26;99768.22;4992923;28;20039;-87
2023/09/01 06:12:42;;;;;;;6.78;2.25;;;;;;;25.91;46.93;99791.63;4991688;28;20096;-87
2023/09/01 06:15:08;;;;;;;5.47;1.98;;;;;;;25.94;46.90;99795.94;4993302;28;20547;-87
2023/09/01 06:17:34;;;;;;;3.22;1.80;;;;;;;26.42;45.91;99799.34;4992596;28;20054;-87
2023/09/01 06:20:00;;;;;;;4.07;2.00;;;;;;;26.47;44.62;99780.03;4992437;28;20066;-87
2023/09/01 06:22:25;;;;;;;4.05;1.17;;;;;;;26.24;43.64;99792.69;4991653;28;20540;-87
2023/09/01 06:24:51;;;;;;;1.38;0.95;;;;;;;26.27;44.71;99789.75;4992441;28;20109;-85
2023/09/01 06:27:16;;;;;;;1.88;1.20;;;;;;;26.30;43.05;99748.94;4991973;28;20058;-86
2023/09/01 06:29:42;;;;;;;3.55;1.30;;;;;;;26.72;42.94;99761.88;4992385;28;20026;-87
2023/09/01 06:32:11;;;;;;;3.60;1.77;;;;;;;26.86;42.79;99823.81;4992319;28;20077;-86
2023/09/01 06:34:37;;;;;;;3.25;1.17;;;;;;;27.14;42.50;99799.91;4992234;28;20058;-86
2023/09/01 06:37:03;;;;;;;2.05;1.23;;;;;;;27.04;42.69;99794.41;4992199;28;20035;-86
2023/09/01 06:39:28;;;;;;;1.35;0.63;;;;;;;26.68;42.69;99761.25;4976818;28;20362;-87
2023/09/01 06:41:54;;;;;;;8.05;1.08;;;;;;;27.01;42.65;99780.28;4973348;28;20113;-87
2023/09/01 06:44:19;;;;;;;2.58;1.02;;;;;;;27.32;42.65;99825.50;4975474;28;20164;-88
2023/09/01 06:46:45;;;;;;;1.90;1.17;;;;;;;27.24;41.64;99787.34;4974573;28;20023;-90
2023/09/01 06:49:10;;;;;;;4.55;1.42;;;;;;;27.28;41.20;99815.00;4971791;28;20039;-86
2023/09/01 06:51:36;;;;;;;2.40;1.42;;;;;;;27.30;41.39;99818.47;4972698;28;20030;-86
2023/09/01 06:54:01;;;;;;;3.80;1.20;;;;;;;27.44;40.95;99799.25;4972937;28;20062;-86
2023/09/01 06:56:26;;;;;;;3.03;1.30;;;;;;;27.71;40.84;99811.44;4979006;28;20413;-87
2023/09/01 06:58:52;;;;;;;2.08;1.67;;;;;;;27.52;41.24;99809.44;4976446;28;20122;-90
2023/09/01 07:01:17;;;;;;;5.07;1.50;;;;;;;27.79;40.21;99822.50;4972889;28;20488;-91
2023/09/01 07:03:43;;;;;;;1.65;1.00;;;;;;;27.97;39.60;99808.38;4954738;28;20434;-90
2023/09/01 07:06:09;;;;;;;2.80;0.63;;;;;;;27.91;39.98;99803.47;4985072;28;20058;-91
2023/09/01 07:08:34;;;;;;;2.25;0.93;;;;;;;27.96;38.96;99761.47;4967663;28;20018;-90
2023/09/01 07:11:01;;;;;;;1.10;0.85;;;;;;;27.99;39.58;99780.16;4974362;28;20042;-88
2023/09/01 07:13:27;;;;;;;1.42;1.15;;;;;;;28.33;39.97;99787.19;4973175;28;20102;-88
2023/09/01 07:15:52;;;;;;;1.83;1.48;;;;;;;28.73;40.08;99840.66;4982430;28;20148;-87
2023/09/01 07:18:18;;;;;;;3.55;1.52;;;;;;;28.95;38.47;99820.63;4973579;28;20027;-90
2023/09/01 07:20:46;;;;;;;2.38;1.40;;;;;;;28.81;38.12;99811.00;4979997;28;20026;-90
2023/09/01 07:23:11;;;;;;;2.47;1.02;;;;;;;28.49;38.62;99794.84;4991240;28;20082;-87
2023/09/01 07:25:37;;;;;;;2.63;1.83;;;;;;;28.72;39.28;99811.81;4991308;28;20565;-85
2023/09/01 07:28:02;;;;;;;2.17;1.55;;;;;;;28.83;38.30;99825.28;4960720;28;20148;-88
2023/09/01 07:30:32;;;;;;;2.20;1.35;;;;;;;29.03;37.82;99837.06;4991296;28;20045;-87
2023/09/01 07:32:57;;;;;;;2.80;1.30;;;;;;;28.86;37.66;99811.44;4991287;28;20548;-87
2023/09/01 07:35:23;;;;;;;2.70;0.95;;;;;;;28.75;37.49;99787.13;4991033;28;20042;-87
2023/09/01 07:37:48;;;;;;;1.60;0.82;;;;;;;28.57;37.10;99803.16;4990832;28;20045;-84
2023/09/01 07:40:14;;;;;;;2.95;1.67;;;;;;;28.82;37.94;99822.72;4991233;28;20122;-93
2023/09/01 07:42:39;;;;;;;1.38;0.82;;;;;;;28.78;37.53;99819.41;4991083;28;20508;-88
2023/09/01 07:45:05;;;;;;;1.45;0.98;;;;;;;29.01;37.47;99828.22;4973676;28;20029;-85
2023/09/01 07:47:31;;;;;;;8.13;2.42;;;;;;;29.22;37.75;99805.56;4990882;28;20109;-89
2023/09/01 07:49:56;;;;;;;3.17;1.05;;;;;;;29.28;38.14;99821.28;4990981;28;20563;-89
2023/09/01 07:52:21;;;;;;;1.75;1.13;;;;;;;29.30;36.96;99813.84;4955942;28;20027;-85
2023/09/01 07:54:47;;;;;;;1.55;1.00;;;;;;;29.57;38.00;99844.94;4965694;28;20089;-89
2023/09/01 07:57:12;;;;;;;1.95;0.98;;;;;;;29.66;38.07;99827.75;4972632;28;20034;-87
2023/09/01 07:59:39;;;;;;;6.13;1.08;;;;;;;29.93;36.62;99801.72;4972869;28;20048;-88
2023/09/01 08:02:05;;;;;;;4.80;1.40;;;;;;;30.08;35.95;99819.31;4990583;28;20022;-86
2023/09/01 08:04:31;;;;;;;3.42;1.80;;;;;;;29.81;36.41;99796.47;4990956;28;20038;-87
2023/09/01 08:06:59;;;;;;;1.30;0.90;;;;;;;30.46;35.74;99800.31;4990550;28;20030;-84
2023/09/01 08:09:25;;;;;;;1.98;1.23;;;;;;;30.75;35.96;99818.41;4990008;28;20034;-89
2023/09/01 08:11:51;;;;;;;1.33;1.20;;;;;;;30.96;35.24;99826.34;4959785;28;20026;-85
2023/09/01 08:14:16;;;;;;;4.65;1.40;;;;;;;30.60;34.26;99813.47;4990384;28;20045;-86
2023/09/01 08:16:42;;;;;;;2.17;1.10;;;;;;;30.41;34.35;99843.47;4977280;28;20030;-86
2023/09/01 08:19:08;;;;;;;1.75;1.25;;;;;;;30.76;34.59;99839.19;4979181;28;20121;-87
2023/09/01 08:21:33;;;;;;;3.20;1.42;;;;;;;30.79;34.88;99834.28;4988418;28;20035;-91
2023/09/01 08:23:59;;;;;;;1.10;0.98;;;;;;;30.55;33.69;99823.94;4972789;28;20081;-87
2023/09/01 08:26:25;;;;;;;1.42;1.17;;;;;;;30.58;34.78;99820.06;4972940;28;20417;-86
2023/09/01 08:28:51;;;;;;;0.85;0.80;;;;;;;31.02;33.31;99834.78;4979575;28;20030;-91
2023/09/01 08:31:17;;;;;;;2.80;1.55;;;;;;;30.84;32.88;99796.56;4987771;28;20046;-86
2023/09/01 08:33:42;;;;;;;4.38;1.50;;;;;;;30.88;33.66;99795.28;4971157;28;20062;-86
2023/09/01 08:36:08;;;;;;;1.40;0.90;;;;;;;31.19;33.97;99827.66;4970643;28;20034;-91
2023/09/01 08:38:33;;;;;;;1.08;0.75;;;;;;;31.47;34.08;99799.53;4953813;28;20125;-91
2023/09/01 08:41:00;;;;;;;1.55;0.95;;;;;;;30.84;32.99;99773.94;4952948;28;20039;-94
2023/09/01 08:43:29;;;;;;;2.38;0.85;;;;;;;31.38;32.72;99813.03;4971757;28;20034;-88
2023/09/01 08:45:56;;;;;;;3.50;1.05;;;;;;;31.43;31.95;99809.84;4969878;28;20035;-87
2023/09/01 08:48:22;;;;;;;2.67;1.67;;;;;;;31.47;31.76;99800.38;4971138;28;20023;-88
2023/09/01 08:50:50;;;;;;;2.25;0.85;;;;;;;31.28;33.53;99741.44;4953199;28;20425;-87
2023/09/01 08:53:16;;;;;;;2.53;1.20;;;;;;;31.97;31.30;99784.44;4970919;28;20054;-88
2023/09/01 08:55:43;;;;;;;0.90;0.90;;;;;;;30.85;32.15;99762.91;4971086;28;20487;-94
2023/09/01 08:58:09;;;;;;;1.80;0.90;;;;;;;30.93;31.67;99773.03;4971173;28;20033;-89
2023/09/01 09:00:36;;;;;;;1.00;0.77;;;;;;;30.88;32.57;99808.03;4953224;28;20031;-91
2023/09/01 09:03:05;;;;;;;1.88;0.88;;;;;;;31.06;31.83;99767.25;4968046;28;20049;-94
2023/09/01 09:05:33;;;;;;;1.33;0.80;;;;;;;30.94;33.31;99742.09;4985763;28;20061;-96
2023/09/01 09:08:07;;;;;;;1.27;0.90;;;;;;;31.08;32.67;99784.31;4972213;28;20505;-93
2023/09/01 09:10:43;;;;;;;1.80;1.02;;;;;;;30.83;31.67;99800.31;4989840;28;20041;-91
2023/09/01 09:13:25;;;;;;;0.80;0.80;;;;;;;30.20;32.63;99710.34;4967023;28;20077;-90
2023/09/01 09:16:13;;;;;;;0.68;0.43;;;;;;;30.71;31.84;99785.19;4965923;28;20038;-89
2023/09/01 09:18:45;;;;;;;2.47;1.00;;;;;;;30.59;31.79;99745.59;4953632;28;20129;-96
2023/09/01 09:21:33;;;;;;;0.60;0.60;;;;;;;30.46;33.42;99756.78;4972126;28;20030;-92
2023/09/01 09:24:02;;;;;;;1.55;1.30;;;;;;;30.58;31.97;99735.69;4936031;28;20100;-91
2023/09/01 09:26:30;;;;;;;1.25;0.90;;;;;;;31.04;32.93;99788.34;4970408;28;20100;-92
2023/09/01 09:29:06;;;;;;;1.77;1.02;;;;;;;31.05;33.70;99730.16;4969705;28;20520;-92
2023/09/01 09:31:44;;;;;;;2.10;0.90;;;;;;;31.50;31.00;99767.34;4969927;28;20023;-89
2023/09/01 09:34:24;;;;;;;2.47;1.42;;;;;;;31.28;31.23;99793.19;4955395;28;20498;-93
2023/09/01 09:36:51;;;;;;;1.35;1.08;;;;;;;31.47;31.62;99780.44;4956613;28;20051;-93
2023/09/01 09:39:27;;;;;;;3.10;1.42;;;;;;;31.22;31.11;99726.56;4980093;28;20090;-91
2023/09/01 09:41:56;;;;;;;0.73;0.65;;;;;;;31.45;31.55;99749.75;4978949;28;20033;-89
2023/09/01 09:44:23;;;;;;;1.10;0.60;;;;;;;31.62;31.66;99762.53;4981211;28;20023;-88
2023/09/01 09:46:49;;;;;;;1.80;1.00;;;;;;;31.29;32.47;99742.28;4974261;28;20034;-88
2023/09/01 09:49:15;;;;;;;5.97;0.93;;;;;;;31.48;31.64;99763.06;4977188;28;20480;-92
2023/09/01 09:51:42;;;;;;;1.90;0.88;;;;;;;31.10;32.84;99754.19;4969911;28;20066;-88
2023/09/01 09:54:10;;;;;;;2.03;0.82;;;;;;;31.30;31.86;99753.03;4958750;28;20519;-90
2023/09/01 09:56:38;;;;;;;1.65;0.90;;;;;;;31.05;31.61;99725.53;4970494;28;20034;-91
2023/09/01 09:59:05;;;;;;;1.80;1.02;;;;;;;31.60;31.34;99756.38;4972973;28;20466;-89
2023/09/01 10:01:39;;;;;;;1.05;0.93;;;;;;;31.39;30.38;99732.16;4973898;28;20031;-92
2023/09/01 10:04:05;;;;;;;3.35;1.20;;;;;;;31.18;30.60;99706.06;4978215;28;20038;-95
2023/09/01 10:06:35;;;;;;;2.03;1.25;;;;;;;30.77;30.75;99713.81;4971405;28;20063;-91
2023/09/01 10:09:05;;;;;;;1.30;0.73;;;;;;;31.11;31.01;99740.41;4972817;28;20066;-92
2023/09/01 10:11:31;;;;;;;1.33;0.85;;;;;;;31.32;29.67;99740.09;4972113;28;20035;-91
2023/09/01 10:13:57;;;;;;;1.73;1.20;;;;;;;31.03;30.80;99734.88;4973784;28;20049;-91
2023/09/01 10:16:23;;;;;;;2.03;0.90;;;;;;;30.78;30.76;99728.28;4973419;28;20066;-89
2023/09/01 10:18:50;;;;;;;0.95;0.52;;;;;;;31.05;31.32;99738.31;4973852;28;20035;-93
2023/09/01 10:21:22;;;;;;;1.92;1.17;;;;;;;31.01;30.44;99726.84;4975524;28;20046;-96
2023/09/01 10:24:04;;;;;;;2.60;0.90;;;;;;;31.09;30.57;99723.34;4996755;28;20054;-90
2023/09/01 10:26:32;;;;;;;1.88;1.17;;;;;;;31.15;30.15;99732.78;4975049;28;20192;-92
2023/09/01 10:29:04;;;;;;;1.45;1.02;;;;;;;31.55;30.21;99736.94;4976660;28;20409;-87
2023/09/01 10:31:35;;;;;;;1.70;0.75;;;;;;;31.20;29.53;99712.25;4993706;28;20164;-89
2023/09/01 10:34:10;;;;;;;2.10;0.90;;;;;;;31.46;30.65;99741.41;4956727;28;20026;-94
2023/09/01 10:36:37;;;;;;;2.45;1.20;;;;;;;31.02;30.84;99698.63;4971781;28;20098;-92
2023/09/01 10:39:26;;;;;;;1.98;1.08;;;;;;;31.46;31.39;99718.75;4969951;28;20037;-88
2023/09/01 10:42:07;;;;;;;1.63;0.80;;;;;;;31.90;30.94;99714.19;4991492;28;20042;-90
2023/09/01 10:44:59;;;;;;;3.42;0.63;;;;;;;31.84;28.53;99733.91;4978527;28;20069;-92
2023/09/01 10:47:30;;;;;;;1.75;1.10;;;;;;;31.81;28.59;99717.88;4951747;29;20090;-85
2023/09/01 10:49:59;;;;;;;0.65;0.50;;;;;;;31.23;29.12;99686.53;4950898;29;20063;-85
2023/09/01 10:52:28;;;;;;;3.60;0.93;;;;;;;31.43;29.82;99714.47;4952231;29;20506;-86
2023/09/01 10:55:00;;;;;;;0.75;0.60;;;;;;;31.66;30.01;99723.03;4935191;29;20027;-84
2023/09/01 10:57:51;;;;;;;1.30;0.60;;;;;;;31.70;28.88;99721.72;4952077;29;20735;-85
2023/09/01 11:00:31;;;;;;;1.80;0.70;;;;;;;31.90;28.46;99702.41;4934979;29;20466;-89
2023/09/01 11:03:31;;;;;;;2.00;0.80;;;;;;;31.95;28.84;99717.28;4951179;29;20422;-89
2023/09/01 11:05:58;;;;;;;3.22;1.45;;;;;;;31.87;29.79;99691.81;4931813;29;20202;-88
2023/09/01 11:08:25;;;;;;;0.95;0.93;;;;;;;32.09;29.10;99706.78;4931557;29;20046;-87
2023/09/01 11:10:55;;;;;;;2.45;1.55;;;;;;;31.56;30.03;99644.09;4931319;29;20133;-90
2023/09/01 11:13:25;;;;;;;1.38;0.85;;;;;;;31.91;28.67;99661.31;4932333;29;20042;-89
2023/09/01 11:15:51;;;;;;;1.27;0.85;;;;;;;31.71;29.68;99695.28;4916960;29;20494;-86
2023/09/01 11:18:17;;;;;;;3.63;1.90;;;;;;;32.12;29.94;99706.50;4931565;29;20051;-87
2023/09/01 11:20:43;;;;;;;2.55;1.95;;;;;;;31.95;28.53;99678.25;4937916;29;20024;-88
2023/09/01 11:23:09;;;;;;;2.15;0.93;;;;;;;32.07;30.20;99665.16;4950302;29;20051;-85
2023/09/01 11:25:35;;;;;;;1.48;0.95;;;;;;;32.08;29.17;99653.25;4970805;28;20038;-88
2023/09/01 11:28:02;;;;;;;1.45;1.10;;;;;;;32.27;29.00;99696.69;4971641;28;20027;-89
2023/09/01 11:30:28;;;;;;;6.80;3.92;;;;;;;32.18;28.04;99691.34;4978553;28;20042;-88
2023/09/01 11:32:56;;;;;;;1.25;0.93;;;;;;;32.21;27.81;99677.38;4977798;28;20560;-90
2023/09/01 11:35:28;;;;;;;2.25;0.88;;;;;;;32.54;27.13;99683.81;4991564;28;20089;-90